createdAt,value
2023-01-12T00:01:59.422Z,98281.44
2023-01-12T00:04:26.179Z,98285.09
2023-01-12T00:06:53.035Z,98283.22
2023-01-12T00:09:19.761Z,98284.16
2023-01-12T00:11:46.464Z,98269.44
2023-01-12T00:14:13.398Z,98287.34
2023-01-12T00:16:41.995Z,98287.34
2023-01-12T00:19:10.505Z,98293.13
2023-01-12T00:21:38.397Z,98291.22
2023-01-12T00:24:05.403Z,98291.16
2023-01-12T00:26:32.143Z,98303.94
2023-01-12T00:28:58.953Z,98313.31
2023-01-12T00:31:25.690Z,98314.84
2023-01-12T00:33:53.791Z,98309.19
2023-01-12T00:36:20.703Z,98307.47
2023-01-12T00:38:47.573Z,98311.78
2023-01-12T00:41:14.607Z,98293.28
2023-01-12T00:43:41.314Z,98292.31
2023-01-12T00:46:08.273Z,98296.69
2023-01-12T00:48:35.210Z,98287.13
2023-01-12T00:51:04.801Z,98282.78
2023-01-12T00:53:31.516Z,98289.91
2023-01-12T00:56:01.407Z,98286.31
2023-01-12T00:58:28.193Z,98291.44
2023-01-12T01:00:55.064Z,98284.94
2023-01-12T01:03:21.848Z,98290.75
2023-01-12T01:05:48.566Z,98286.63
2023-01-12T01:08:16.645Z,98287.41
2023-01-12T01:10:43.351Z,98294.88
2023-01-12T01:13:10.042Z,98287.81
2023-01-12T01:15:36.796Z,98294.00
2023-01-12T01:18:03.622Z,98294.84
2023-01-12T01:20:30.328Z,98306.63
2023-01-12T01:22:57.008Z,98291.44
2023-01-12T01:25:25.122Z,98297.88
2023-01-12T01:27:51.808Z,98305.56
2023-01-12T01:30:18.513Z,98286.97
2023-01-12T01:32:45.218Z,98296.34
2023-01-12T01:35:11.939Z,98308.88
2023-01-12T01:37:38.615Z,98302.59
2023-01-12T01:40:06.431Z,98298.53
2023-01-12T01:42:34.619Z,98298.72
2023-01-12T01:45:04.614Z,98302.28
2023-01-12T01:47:36.616Z,98299.91
2023-01-12T01:50:10.142Z,98298.22
2023-01-12T01:52:42.298Z,98308.56
2023-01-12T01:55:13.922Z,98299.53
2023-01-12T01:57:45.809Z,98308.56
2023-01-12T02:00:13.560Z,98303.44
2023-01-12T02:02:43.833Z,98310.38
2023-01-12T02:05:12.315Z,98319.13
2023-01-12T02:07:39.171Z,98322.19
2023-01-12T02:10:06.545Z,98327.31
2023-01-12T02:12:33.357Z,98324.81
2023-01-12T02:15:01.557Z,98320.78
2023-01-12T02:17:48.737Z,98339.63
2023-01-12T02:20:54.358Z,98339.28
2023-01-12T02:24:01.080Z,98348.69
2023-01-12T02:27:07.692Z,98346.34
2023-01-12T02:30:30.688Z,98351.13
2023-01-12T02:33:13.068Z,98367.63
2023-01-12T02:35:45.544Z,98364.38
2023-01-12T02:38:23.404Z,98372.00
2023-01-12T02:40:56.569Z,98364.84
2023-01-12T02:43:27.831Z,98372.97
2023-01-12T02:46:02.204Z,98368.78
2023-01-12T02:48:36.696Z,98373.22
2023-01-12T02:51:10.225Z,98380.69
2023-01-12T02:53:41.781Z,98378.44
2023-01-12T02:56:10.378Z,98390.81
2023-01-12T02:58:42.724Z,98394.34
2023-01-12T03:01:12.095Z,98388.91
2023-01-12T03:03:41.649Z,98402.66
2023-01-12T03:06:09.194Z,98390.81
2023-01-12T03:08:39.170Z,98407.56
2023-01-12T03:11:11.922Z,98412.94
2023-01-12T03:13:43.983Z,98413.59
2023-01-12T03:16:13.301Z,98410.63
2023-01-12T03:18:48.537Z,98418.28
2023-01-12T03:21:24.960Z,98416.41
2023-01-12T03:23:58.158Z,98415.84
2023-01-12T03:26:27.399Z,98424.94
2023-01-12T03:29:02.252Z,98430.41
2023-01-12T03:31:29.093Z,98434.53
2023-01-12T03:33:58.046Z,98428.50
2023-01-12T03:36:33.553Z,98432.59
2023-01-12T03:39:07.730Z,98442.72
2023-01-12T03:41:44.221Z,98440.28
2023-01-12T03:44:24.086Z,98443.31
2023-01-12T03:46:55.230Z,98457.09
2023-01-12T03:49:31.843Z,98460.63
2023-01-12T03:52:01.683Z,98467.81
2023-01-12T03:54:30.371Z,98466.16
2023-01-12T03:56:58.078Z,98472.44
2023-01-12T03:59:25.337Z,98475.50
2023-01-12T04:01:52.333Z,98478.75
2023-01-12T04:04:19.208Z,98485.38
2023-01-12T04:06:47.513Z,98480.97
2023-01-12T04:09:14.349Z,98495.56
2023-01-12T04:11:41.126Z,98494.69
2023-01-12T04:14:08.089Z,98495.25
2023-01-12T04:16:34.885Z,98496.66
2023-01-12T04:19:01.684Z,98494.19
2023-01-12T04:21:28.503Z,98509.59
2023-01-12T04:23:56.698Z,98492.72
2023-01-12T04:26:23.667Z,98501.28
2023-01-12T04:28:50.488Z,98508.13
2023-01-12T04:31:17.196Z,98508.75
2023-01-12T04:33:44.167Z,98502.25
2023-01-12T04:36:11.539Z,98505.41
2023-01-12T04:38:40.190Z,98511.16
2023-01-12T04:41:08.864Z,98513.91
2023-01-12T04:43:36.141Z,98524.38
2023-01-12T04:46:06.037Z,98521.38
2023-01-12T04:48:32.801Z,98534.56
2023-01-12T04:51:00.779Z,98535.16
2023-01-12T04:53:27.696Z,98528.53
2023-01-12T04:55:54.636Z,98522.50
2023-01-12T04:58:23.465Z,98529.91
2023-01-12T05:00:50.363Z,98529.09
2023-01-12T05:03:17.397Z,98530.72
2023-01-12T05:05:44.386Z,98526.88
2023-01-12T05:08:11.079Z,98534.03
2023-01-12T05:10:37.871Z,98535.69
2023-01-12T05:13:04.623Z,98526.28
2023-01-12T05:15:32.990Z,98518.03
2023-01-12T05:17:59.748Z,98531.75
2023-01-12T05:20:26.652Z,98540.47
2023-01-12T05:22:53.678Z,98542.56
2023-01-12T05:25:20.336Z,98544.28
2023-01-12T05:27:47.096Z,98550.41
2023-01-12T05:30:14.324Z,98548.75
2023-01-12T05:32:42.524Z,98540.78
2023-01-12T05:35:09.751Z,98540.34
2023-01-12T05:37:36.525Z,98537.38
2023-01-12T05:40:03.675Z,98534.03
2023-01-12T05:42:30.398Z,98541.47
2023-01-12T05:44:57.170Z,98539.84
2023-01-12T05:47:23.949Z,98547.56
2023-01-12T05:49:52.109Z,98546.19
2023-01-12T05:52:18.809Z,98537.44
2023-01-12T05:54:45.508Z,98547.66
2023-01-12T05:57:12.241Z,98543.56
2023-01-12T05:59:38.985Z,98538.84
2023-01-12T06:02:05.779Z,98540.53
2023-01-12T06:04:32.722Z,98547.38
2023-01-12T06:07:01.079Z,98546.22
2023-01-12T06:09:28.133Z,98542.31
2023-01-12T06:11:55.585Z,98539.78
2023-01-12T06:14:22.312Z,98538.72
2023-01-12T06:16:49.550Z,98547.00
2023-01-12T06:19:16.304Z,98535.28
2023-01-12T06:21:43.141Z,98539.84
2023-01-12T06:24:11.519Z,98540.13
2023-01-12T06:26:38.243Z,98534.03
2023-01-12T06:29:05.083Z,98532.38
2023-01-12T06:31:31.976Z,98528.47
2023-01-12T06:33:58.937Z,98529.25
2023-01-12T06:36:25.635Z,98524.50
2023-01-12T06:38:52.408Z,98537.69
2023-01-12T06:41:20.531Z,98534.03
2023-01-12T06:43:47.295Z,98539.91
2023-01-12T06:46:14.047Z,98531.09
2023-01-12T06:48:40.845Z,98535.34
2023-01-12T06:51:07.539Z,98527.16
2023-01-12T06:53:34.331Z,98535.00
2023-01-12T06:56:01.053Z,98547.81
2023-01-12T06:58:29.254Z,98540.00
2023-01-12T07:01:01.019Z,98534.66
2023-01-12T07:03:27.811Z,98531.06
2023-01-12T07:05:57.641Z,98527.75
2023-01-12T07:08:24.576Z,98532.34
2023-01-12T07:10:51.437Z,98536.81
2023-01-12T07:13:18.270Z,98536.72
2023-01-12T07:15:46.567Z,98540.56
2023-01-12T07:18:13.257Z,98533.00
2023-01-12T07:20:40.080Z,98548.84
2023-01-12T07:23:06.896Z,98551.34
2023-01-12T07:25:33.731Z,98553.81
2023-01-12T07:28:00.609Z,98555.03
2023-01-12T07:30:27.464Z,98559.16
2023-01-12T07:32:55.606Z,98560.78
2023-01-12T07:35:22.340Z,98560.69
2023-01-12T07:37:49.932Z,98567.16
2023-01-12T07:40:17.363Z,98568.63
2023-01-12T07:42:44.128Z,98564.53
2023-01-12T07:45:11.781Z,98553.06
2023-01-12T07:47:38.775Z,98543.38
2023-01-12T07:50:08.043Z,98536.28
2023-01-12T07:52:34.883Z,98539.63
2023-01-12T07:55:01.731Z,98540.16
2023-01-12T07:57:28.422Z,98543.25
2023-01-12T07:59:55.202Z,98549.13
2023-01-12T08:02:22.071Z,98541.00
2023-01-12T08:04:48.876Z,98540.34
2023-01-12T08:07:17.050Z,98560.03
2023-01-12T08:09:43.845Z,98563.66
2023-01-12T08:12:10.537Z,98565.69
2023-01-12T08:14:40.468Z,98562.88
2023-01-12T08:17:11.109Z,98568.25
2023-01-12T08:19:41.918Z,98548.28
2023-01-12T08:22:14.128Z,98551.22
2023-01-12T08:24:48.209Z,98551.47
2023-01-12T08:27:18.803Z,98538.75
2023-01-12T08:29:48.958Z,98540.78
2023-01-12T08:32:16.160Z,98542.28
2023-01-12T08:34:45.501Z,98541.00
2023-01-12T08:37:16.351Z,98537.06
2023-01-12T08:39:46.066Z,98546.19
2023-01-12T08:42:13.149Z,98532.38
2023-01-12T08:44:40.193Z,98538.78
2023-01-12T08:47:15.662Z,98527.72
2023-01-12T08:49:42.407Z,98534.88
2023-01-12T08:52:09.192Z,98539.25
2023-01-12T08:54:36.157Z,98540.97
2023-01-12T08:57:04.330Z,98531.56
2023-01-12T08:59:31.110Z,98533.84
2023-01-12T09:01:58.040Z,98537.19
2023-01-12T09:04:25.083Z,98525.53
2023-01-12T09:06:51.796Z,98525.22
2023-01-12T09:09:19.569Z,98530.22
2023-01-12T09:11:47.453Z,98526.16
2023-01-12T09:14:16.021Z,98529.31
2023-01-12T09:16:43.276Z,98524.97
2023-01-12T09:19:10.416Z,98523.56
2023-01-12T09:21:38.708Z,98511.31
2023-01-12T09:24:06.355Z,98503.09
2023-01-12T09:26:37.732Z,98511.41
2023-01-12T09:29:04.549Z,98502.88
2023-01-12T09:31:33.703Z,98510.34
2023-01-12T09:34:00.562Z,98508.38
2023-01-12T09:36:28.881Z,98516.81
2023-01-12T09:38:56.481Z,98524.06
2023-01-12T09:41:26.739Z,98527.66
2023-01-12T09:43:53.483Z,98523.50
2023-01-12T09:46:30.343Z,98510.91
2023-01-12T09:48:58.850Z,98513.13
2023-01-12T09:51:32.186Z,98501.88
2023-01-12T09:53:59.191Z,98491.69
2023-01-12T09:56:29.587Z,98495.81
2023-01-12T09:59:18.661Z,98500.50
2023-01-12T10:01:45.703Z,98507.09
2023-01-12T10:04:14.609Z,98498.00
2023-01-12T10:06:41.883Z,98495.25
2023-01-12T10:09:15.407Z,98496.31
2023-01-12T10:11:49.780Z,98489.72
2023-01-12T10:14:27.333Z,98492.50
2023-01-12T10:17:08.002Z,98491.16
2023-01-12T10:19:47.944Z,98485.63
2023-01-12T10:22:21.814Z,98495.72
2023-01-12T10:24:49.459Z,98489.16
2023-01-12T10:27:22.402Z,98482.88
2023-01-12T10:29:49.105Z,98463.94
2023-01-12T10:32:15.785Z,98476.50
2023-01-12T10:34:51.227Z,98479.25
2023-01-12T10:37:18.049Z,98469.41
2023-01-12T10:39:45.277Z,98478.16
2023-01-12T10:42:21.062Z,98468.94
2023-01-12T10:44:56.025Z,98462.53
2023-01-12T10:47:22.930Z,98460.91
2023-01-12T10:50:18.787Z,98461.91
2023-01-12T10:52:45.996Z,98463.03
2023-01-12T10:55:18.613Z,98454.47
2023-01-12T10:57:48.192Z,98450.88
2023-01-12T11:00:21.387Z,98453.94
2023-01-12T11:02:48.950Z,98439.34
2023-01-12T11:05:30.470Z,98437.97
2023-01-12T11:07:58.233Z,98438.88
2023-01-12T11:10:28.394Z,98434.41
2023-01-12T11:12:57.355Z,98425.03
2023-01-12T11:15:24.349Z,98423.16
2023-01-12T11:18:03.659Z,98421.69
2023-01-12T11:20:37.320Z,98393.78
2023-01-12T11:23:09.548Z,98397.91
2023-01-12T11:25:41.483Z,98389.66
2023-01-12T11:28:17.687Z,98402.72
2023-01-12T11:30:49.929Z,98400.81
2023-01-12T11:33:20.465Z,98398.41
2023-01-12T11:35:54.607Z,98394.09
2023-01-12T11:38:26.271Z,98395.97
2023-01-12T11:40:55.887Z,98399.59
2023-01-12T11:43:32.554Z,98397.81
2023-01-12T11:46:05.571Z,98385.91
2023-01-12T11:48:42.212Z,98396.16
2023-01-12T11:51:11.317Z,98390.69
2023-01-12T11:53:40.119Z,98374.38
2023-01-12T11:56:28.045Z,98369.84
2023-01-12T11:59:03.910Z,98381.50
2023-01-12T12:01:41.119Z,98363.94
2023-01-12T12:04:21.515Z,98359.66
2023-01-12T12:07:09.087Z,98351.97
2023-01-12T12:10:05.035Z,98343.97
2023-01-12T12:12:43.175Z,98335.31
2023-01-12T12:17:54.584Z,98337.69
2023-01-12T12:20:29.528Z,98340.25
2023-01-12T12:23:12.482Z,98326.38
2023-01-12T12:25:51.670Z,98328.81
2023-01-12T12:28:39.837Z,98333.75
2023-01-12T12:31:36.516Z,98334.28
2023-01-12T12:34:25.446Z,98331.34
2023-01-12T12:37:02.171Z,98339.44
2023-01-12T12:39:36.370Z,98330.53
2023-01-12T12:42:18.534Z,98329.78
2023-01-12T12:44:59.978Z,98344.81
2023-01-12T12:47:59.246Z,98342.63
2023-01-12T12:50:31.059Z,98364.22
2023-01-12T12:53:13.298Z,98356.78
2023-01-12T12:55:43.366Z,98346.06
2023-01-12T12:58:28.965Z,98342.75
2023-01-12T13:01:43.027Z,98348.56
2023-01-12T13:04:11.480Z,98350.47
2023-01-12T13:06:42.582Z,98340.59
2023-01-12T13:09:39.795Z,98351.31
2023-01-12T13:12:20.778Z,98358.25
2023-01-12T13:15:16.719Z,98368.84
2023-01-12T13:17:47.476Z,98359.72
2023-01-12T13:20:35.820Z,98358.84
2023-01-12T13:23:02.684Z,98359.22
2023-01-12T13:25:55.685Z,98365.56
2023-01-12T13:28:23.964Z,98364.75
2023-01-12T13:30:53.085Z,98355.94
2023-01-12T13:33:27.629Z,98340.06
2023-01-12T13:36:10.542Z,98346.00
2023-01-12T13:39:05.813Z,98343.88
2023-01-12T13:41:35.813Z,98338.34
2023-01-12T13:44:06.173Z,98338.03
2023-01-12T13:46:37.522Z,98338.94
2023-01-12T13:49:24.836Z,98331.00
2023-01-12T13:51:56.476Z,98336.16
2023-01-12T13:54:23.365Z,98324.38
2023-01-12T13:56:56.708Z,98327.13
2023-01-12T13:59:24.845Z,98311.75
2023-01-12T14:01:52.574Z,98312.03
2023-01-12T14:04:51.351Z,98305.44
2023-01-12T14:07:29.784Z,98313.28
2023-01-12T14:10:13.694Z,98312.75
2023-01-12T14:13:14.775Z,98320.59
2023-01-12T14:15:43.900Z,98326.31
2023-01-12T14:18:13.417Z,98313.88
2023-01-12T14:20:46.127Z,98322.66
2023-01-12T14:23:22.403Z,98321.44
2023-01-12T14:26:12.492Z,98322.00
2023-01-12T14:28:41.767Z,98322.50
2023-01-12T14:31:19.290Z,98326.94
2023-01-12T14:33:50.247Z,98333.16
2023-01-12T14:36:21.777Z,98332.31
2023-01-12T14:38:49.835Z,98344.25
2023-01-12T14:41:22.821Z,98370.06
2023-01-12T14:43:51.931Z,98373.50
2023-01-12T14:46:26.463Z,98361.91
2023-01-12T14:48:59.498Z,98376.31
2023-01-12T14:51:28.072Z,98378.06
2023-01-12T14:53:58.733Z,98378.00
2023-01-12T14:56:28.583Z,98359.41
2023-01-12T14:59:05.979Z,98355.41
2023-01-12T15:01:36.615Z,98366.81
2023-01-12T15:04:05.139Z,98354.84
2023-01-12T15:06:38.199Z,98361.06
2023-01-12T15:09:05.596Z,98351.78
2023-01-12T15:11:34.379Z,98365.19
2023-01-12T15:14:02.672Z,98352.31
2023-01-12T15:16:29.703Z,98361.13
2023-01-12T15:18:57.969Z,98361.53
2023-01-12T15:21:25.737Z,98375.00
2023-01-12T15:23:52.493Z,98364.88
2023-01-12T15:26:20.312Z,98392.75
2023-01-12T15:28:47.565Z,98407.16
2023-01-12T15:31:19.432Z,98411.81
2023-01-12T15:33:46.232Z,98388.81
2023-01-12T15:36:15.078Z,98370.78
2023-01-12T15:38:41.851Z,98372.53
2023-01-12T15:41:16.556Z,98355.78
2023-01-12T15:43:43.370Z,98346.69
2023-01-12T15:46:18.518Z,98348.28
2023-01-12T15:48:45.200Z,98345.91
2023-01-12T15:51:15.597Z,98351.34
2023-01-12T15:53:42.391Z,98352.19
2023-01-12T15:56:12.443Z,98356.50
2023-01-12T15:58:39.151Z,98366.28
2023-01-12T16:01:06.070Z,98365.94
2023-01-12T16:04:00.581Z,98370.81
2023-01-12T16:06:21.454Z,98363.78
2023-01-12T16:08:48.197Z,98376.81
2023-01-12T16:11:20.202Z,98360.38
2023-01-12T16:13:48.157Z,98371.03
2023-01-12T16:16:16.196Z,98384.31
2023-01-12T16:18:43.281Z,98369.97
2023-01-12T16:21:14.934Z,98360.53
2023-01-12T16:23:43.302Z,98368.75
2023-01-12T16:26:10.114Z,98376.09
2023-01-12T16:28:37.061Z,98377.09
2023-01-12T16:31:06.097Z,98387.34
2023-01-12T16:33:33.125Z,98387.75
2023-01-12T16:36:00.059Z,98382.34
2023-01-12T16:38:26.883Z,98384.94
2023-01-12T16:40:54.999Z,98386.19
2023-01-12T16:43:21.991Z,98390.84
2023-01-12T16:45:48.786Z,98382.13
2023-01-12T16:48:15.604Z,98380.50
2023-01-12T16:50:43.137Z,98381.56
2023-01-12T16:53:10.484Z,98372.69
2023-01-12T16:55:38.291Z,98370.13
2023-01-12T16:58:07.291Z,98383.72
2023-01-12T17:00:35.716Z,98374.56
2023-01-12T17:03:02.983Z,98378.75
2023-01-12T17:05:31.455Z,98378.91
2023-01-12T17:07:58.240Z,98386.84
2023-01-12T17:10:25.130Z,98373.22
2023-01-12T17:12:57.123Z,98380.03
2023-01-12T17:15:29.614Z,98380.56
2023-01-12T17:17:56.462Z,98384.28
2023-01-12T17:20:23.312Z,98377.06
2023-01-12T17:22:50.772Z,98379.31
2023-01-12T17:25:17.835Z,98384.53
2023-01-12T17:27:44.608Z,98379.56
2023-01-12T17:30:12.102Z,98372.13
2023-01-12T17:32:40.757Z,98371.16
2023-01-12T17:35:08.227Z,98381.31
2023-01-12T17:37:35.196Z,98387.47
2023-01-12T17:40:02.626Z,98382.41
2023-01-12T17:42:29.363Z,98381.66
2023-01-12T17:44:56.025Z,98389.16
2023-01-12T17:47:23.608Z,98374.59
2023-01-12T17:49:53.075Z,98380.72
2023-01-12T17:52:19.926Z,98366.91
2023-01-12T17:54:46.740Z,98369.59
2023-01-12T17:57:13.530Z,98384.69
2023-01-12T17:59:40.307Z,98379.16
2023-01-12T18:02:07.550Z,98367.03
2023-01-12T18:04:34.311Z,98366.22
2023-01-12T18:07:02.450Z,98370.78
2023-01-12T18:09:29.358Z,98361.59
2023-01-12T18:11:56.029Z,98363.72
2023-01-12T18:14:22.751Z,98362.75
2023-01-12T18:16:49.632Z,98372.25
2023-01-12T18:19:16.376Z,98375.09
2023-01-12T18:21:43.113Z,98372.59
2023-01-12T18:24:11.423Z,98379.34
2023-01-12T18:26:38.386Z,98378.72
2023-01-12T18:29:06.129Z,98375.41
2023-01-12T18:31:34.124Z,98367.72
2023-01-12T18:34:01.599Z,98366.75
2023-01-12T18:36:28.280Z,98369.78
2023-01-12T18:38:55.083Z,98354.59
2023-01-12T18:41:23.539Z,98366.41
2023-01-12T18:43:50.280Z,98363.91
2023-01-12T18:46:17.083Z,98358.00
2023-01-12T18:48:44.345Z,98331.03
2023-01-12T18:51:11.360Z,98332.63
2023-01-12T18:53:38.764Z,98339.97
2023-01-12T18:56:06.431Z,98347.09
2023-01-12T18:58:35.502Z,98348.66
2023-01-12T19:01:03.636Z,98347.81
2023-01-12T19:03:30.648Z,98346.03
2023-01-12T19:05:57.384Z,98352.59
2023-01-12T19:08:24.081Z,98343.63
2023-01-12T19:10:50.902Z,98331.63
2023-01-12T19:13:17.631Z,98337.25
2023-01-12T19:15:45.977Z,98338.97
2023-01-12T19:18:12.749Z,98333.19
2023-01-12T19:20:39.607Z,98350.69
2023-01-12T19:23:06.339Z,98338.56
2023-01-12T19:25:33.024Z,98339.28
2023-01-12T19:27:59.867Z,98333.50
2023-01-12T19:30:26.648Z,98328.84
2023-01-12T19:32:54.830Z,98332.53
2023-01-12T19:35:21.618Z,98325.56
2023-01-12T19:37:48.982Z,98325.34
2023-01-12T19:40:16.627Z,98322.44
2023-01-12T19:42:43.309Z,98317.25
2023-01-12T19:45:10.434Z,98315.66
2023-01-12T19:47:38.978Z,98297.88
2023-01-12T19:50:09.129Z,98287.44
2023-01-12T19:52:35.971Z,98286.06
2023-01-12T19:55:03.881Z,98294.78
2023-01-12T19:57:30.954Z,98308.38
2023-01-12T19:59:57.704Z,98297.47
2023-01-12T20:02:24.849Z,98300.72
2023-01-12T20:04:51.716Z,98310.31
2023-01-12T20:07:20.098Z,98303.81
2023-01-12T20:09:46.912Z,98300.34
2023-01-12T20:12:13.976Z,98303.50
2023-01-12T20:14:40.741Z,98312.00
2023-01-12T20:17:07.676Z,98313.41
2023-01-12T20:19:34.755Z,98306.63
2023-01-12T20:22:01.959Z,98294.91
2023-01-12T20:24:30.332Z,98311.97
2023-01-12T20:26:57.032Z,98307.59
2023-01-12T20:29:23.834Z,98297.84
2023-01-12T20:31:50.892Z,98292.91
2023-01-12T20:34:18.432Z,98300.53
2023-01-12T20:36:47.688Z,98306.91
2023-01-12T20:39:15.293Z,98311.94
2023-01-12T20:41:43.447Z,98302.19
2023-01-12T20:44:14.830Z,98320.53
2023-01-12T20:46:42.314Z,98316.13
2023-01-12T20:49:09.613Z,98314.34
2023-01-12T20:51:36.580Z,98313.28
2023-01-12T20:54:04.892Z,98301.50
2023-01-12T20:56:31.993Z,98314.44
2023-01-12T20:59:00.403Z,98313.97
2023-01-12T21:01:27.880Z,98310.31
2023-01-12T21:03:54.750Z,98324.97
2023-01-12T21:06:21.504Z,98309.84
2023-01-12T21:08:48.299Z,98303.69
2023-01-12T21:11:16.864Z,98303.72
2023-01-12T21:13:44.040Z,98312.84
2023-01-12T21:16:14.259Z,98285.88
2023-01-12T21:18:41.291Z,98304.28
2023-01-12T21:21:08.072Z,98296.09
2023-01-12T21:23:34.936Z,98286.13
2023-01-12T21:26:01.778Z,98278.81
2023-01-12T21:28:30.274Z,98293.84
2023-01-12T21:31:00.188Z,98294.66
2023-01-12T21:33:28.755Z,98285.56
2023-01-12T21:35:55.897Z,98294.06
2023-01-12T21:38:23.675Z,98284.19
2023-01-12T21:40:50.640Z,98280.16
2023-01-12T21:43:17.456Z,98281.25
2023-01-12T21:45:45.649Z,98266.31
2023-01-12T21:48:13.876Z,98261.50
2023-01-12T21:50:42.688Z,98274.06
2023-01-12T21:53:14.082Z,98269.78
2023-01-12T21:55:41.867Z,98283.69
2023-01-12T21:58:08.577Z,98270.13
2023-01-12T22:00:35.407Z,98269.47
2023-01-12T22:03:02.157Z,98259.84
2023-01-12T22:05:29.165Z,98268.19
2023-01-12T22:07:57.276Z,98269.53
2023-01-12T22:10:23.985Z,98251.75
2023-01-12T22:12:52.338Z,98258.44
2023-01-12T22:15:19.251Z,98266.41
2023-01-12T22:17:46.119Z,98250.28
2023-01-12T22:20:14.123Z,98246.31
2023-01-12T22:22:40.852Z,98251.78
2023-01-12T22:25:11.189Z,98243.44
2023-01-12T22:27:38.829Z,98227.63
2023-01-12T22:30:07.056Z,98237.47
2023-01-12T22:32:33.796Z,98239.25
2023-01-12T22:35:00.502Z,98226.88
2023-01-12T22:37:28.109Z,98231.59
2023-01-12T22:39:55.513Z,98227.88
2023-01-12T22:42:23.908Z,98224.22
2023-01-12T22:44:50.850Z,98224.38
2023-01-12T22:47:17.512Z,98216.47
2023-01-12T22:49:44.216Z,98205.88
2023-01-12T22:52:11.357Z,98213.66
2023-01-12T22:54:38.035Z,98215.78
2023-01-12T22:57:04.792Z,98221.16
2023-01-12T22:59:32.953Z,98224.25
2023-01-12T23:01:59.663Z,98212.97
2023-01-12T23:04:26.347Z,98211.13
2023-01-12T23:06:53.048Z,98196.31
2023-01-12T23:09:19.747Z,98203.53
2023-01-12T23:11:46.414Z,98203.97
2023-01-12T23:14:13.081Z,98199.53
2023-01-12T23:16:41.119Z,98209.59
2023-01-12T23:19:08.590Z,98202.09
2023-01-12T23:21:35.277Z,98205.56
2023-01-12T23:24:01.971Z,98212.38
2023-01-12T23:26:30.538Z,98198.69
2023-01-12T23:28:59.252Z,98206.47
2023-01-12T23:31:28.417Z,98205.00
2023-01-12T23:33:56.747Z,98212.75
2023-01-12T23:36:25.320Z,98198.31
2023-01-12T23:38:53.377Z,98219.19
2023-01-12T23:41:21.944Z,98215.50
2023-01-12T23:43:50.584Z,98228.47
2023-01-12T23:46:18.441Z,98227.69
2023-01-12T23:48:45.127Z,98197.72
2023-01-12T23:51:13.347Z,98216.22
2023-01-12T23:53:40.019Z,98238.66
2023-01-12T23:56:09.216Z,98222.03
2023-01-12T23:58:36.323Z,98229.34
